sensor_id;sensor_type;location;lat;lon;timestamp;pressure;altitude;pressure_sealevel;temperature
76901;BMP280;65859;43.020;25.096;2023-02-28T00:01:31;100014.41;;;8.00
76901;BMP280;65859;43.020;25.096;2023-02-28T00:03:58;100026.09;;;7.94
76901;BMP280;65859;43.020;25.096;2023-02-28T00:06:24;100028.72;;;8.18
76901;BMP280;65859;43.020;25.096;2023-02-28T00:08:51;100031.16;;;8.15
76901;BMP280;65859;43.020;25.096;2023-02-28T00:11:17;100033.03;;;8.33
76901;BMP280;65859;43.020;25.096;2023-02-28T00:13:45;100035.56;;;8.24
76901;BMP280;65859;43.020;25.096;2023-02-28T00:16:18;100028.41;;;8.44
76901;BMP280;65859;43.020;25.096;2023-02-28T00:18:46;100028.97;;;8.59
76901;BMP280;65859;43.020;25.096;2023-02-28T00:21:14;100032.38;;;8.46
76901;BMP280;65859;43.020;25.096;2023-02-28T00:23:40;100034.66;;;8.10
76901;BMP280;65859;43.020;25.096;2023-02-28T00:26:06;100037.56;;;8.32
76901;BMP280;65859;43.020;25.096;2023-02-28T00:28:33;100033.81;;;8.71
76901;BMP280;65859;43.020;25.096;2023-02-28T00:30:59;100031.56;;;8.46
76901;BMP280;65859;43.020;25.096;2023-02-28T00:33:27;100033.19;;;8.79
76901;BMP280;65859;43.020;25.096;2023-02-28T00:36:02;100040.75;;;9.05
76901;BMP280;65859;43.020;25.096;2023-02-28T00:38:29;100042.97;;;8.60
76901;BMP280;65859;43.020;25.096;2023-02-28T00:40:56;100040.13;;;8.56
76901;BMP280;65859;43.020;25.096;2023-02-28T00:43:22;100028.47;;;8.95
76901;BMP280;65859;43.020;25.096;2023-02-28T00:45:48;100025.56;;;9.10
76901;BMP280;65859;43.020;25.096;2023-02-28T00:48:15;100021.81;;;9.11
76901;BMP280;65859;43.020;25.096;2023-02-28T00:50:43;100026.56;;;9.14
76901;BMP280;65859;43.020;25.096;2023-02-28T00:53:09;100025.16;;;9.03
76901;BMP280;65859;43.020;25.096;2023-02-28T00:55:35;100018.84;;;8.99
76901;BMP280;65859;43.020;25.096;2023-02-28T00:58:02;100014.41;;;9.13
76901;BMP280;65859;43.020;25.096;2023-02-28T01:00:28;100016.81;;;9.10
76901;BMP280;65859;43.020;25.096;2023-02-28T01:02:54;100023.88;;;8.82
76901;BMP280;65859;43.020;25.096;2023-02-28T01:05:21;100029.72;;;8.98
76901;BMP280;65859;43.020;25.096;2023-02-28T01:07:47;100021.97;;;9.20
76901;BMP280;65859;43.020;25.096;2023-02-28T01:10:13;100018.69;;;9.42
76901;BMP280;65859;43.020;25.096;2023-02-28T01:12:40;100017.59;;;9.43
76901;BMP280;65859;43.020;25.096;2023-02-28T01:15:06;100015.28;;;8.90
76901;BMP280;65859;43.020;25.096;2023-02-28T01:17:33;100024.94;;;9.00
76901;BMP280;65859;43.020;25.096;2023-02-28T01:19:59;100017.88;;;8.95
76901;BMP280;65859;43.020;25.096;2023-02-28T01:22:26;100009.81;;;8.86
76901;BMP280;65859;43.020;25.096;2023-02-28T01:24:53;100009.34;;;8.66
76901;BMP280;65859;43.020;25.096;2023-02-28T01:27:20;100011.44;;;8.82
76901;BMP280;65859;43.020;25.096;2023-02-28T01:29:46;100019.84;;;9.03
76901;BMP280;65859;43.020;25.096;2023-02-28T01:32:12;100018.97;;;9.08
76901;BMP280;65859;43.020;25.096;2023-02-28T01:34:39;100020.50;;;9.41
76901;BMP280;65859;43.020;25.096;2023-02-28T01:37:05;100025.78;;;9.14
76901;BMP280;65859;43.020;25.096;2023-02-28T01:39:31;100015.41;;;8.99
76901;BMP280;65859;43.020;25.096;2023-02-28T01:41:58;100012.47;;;9.33
76901;BMP280;65859;43.020;25.096;2023-02-28T01:47:22;100026.72;;;9.51
76901;BMP280;65859;43.020;25.096;2023-02-28T01:49:50;100030.75;;;9.34
76901;BMP280;65859;43.020;25.096;2023-02-28T01:52:17;100033.50;;;9.10
76901;BMP280;65859;43.020;25.096;2023-02-28T01:54:50;100040.63;;;8.77
76901;BMP280;65859;43.020;25.096;2023-02-28T01:57:19;100037.19;;;8.96
76901;BMP280;65859;43.020;25.096;2023-02-28T01:59:52;100047.34;;;8.70
76901;BMP280;65859;43.020;25.096;2023-02-28T02:02:21;100056.16;;;8.65
76901;BMP280;65859;43.020;25.096;2023-02-28T02:04:58;100074.47;;;8.61
76901;BMP280;65859;43.020;25.096;2023-02-28T02:07:34;100075.81;;;8.78
76901;BMP280;65859;43.020;25.096;2023-02-28T02:13:14;100062.91;;;8.90
76901;BMP280;65859;43.020;25.096;2023-02-28T02:16:04;100062.78;;;8.81
76901;BMP280;65859;43.020;25.096;2023-02-28T02:21:47;100073.13;;;8.83
76901;BMP280;65859;43.020;25.096;2023-02-28T02:24:42;100076.25;;;8.85
76901;BMP280;65859;43.020;25.096;2023-02-28T02:38:36;100064.63;;;9.00
76901;BMP280;65859;43.020;25.096;2023-02-28T02:41:16;100063.34;;;9.30
76901;BMP280;65859;43.020;25.096;2023-02-28T02:46:38;100048.53;;;9.15
76901;BMP280;65859;43.020;25.096;2023-02-28T02:49:09;100034.91;;;8.51
76901;BMP280;65859;43.020;25.096;2023-02-28T02:51:38;100028.63;;;8.47
76901;BMP280;65859;43.020;25.096;2023-02-28T02:56:36;100033.69;;;8.44
76901;BMP280;65859;43.020;25.096;2023-02-28T02:59:09;100028.75;;;8.37
76901;BMP280;65859;43.020;25.096;2023-02-28T03:01:38;100028.22;;;8.16
76901;BMP280;65859;43.020;25.096;2023-02-28T03:04:13;100025.88;;;7.91
76901;BMP280;65859;43.020;25.096;2023-02-28T03:06:42;100016.53;;;8.22
76901;BMP280;65859;43.020;25.096;2023-02-28T03:09:08;100017.50;;;7.83
76901;BMP280;65859;43.020;25.096;2023-02-28T03:11:36;100017.66;;;7.68
76901;BMP280;65859;43.020;25.096;2023-02-28T03:14:23;100016.00;;;7.77
76901;BMP280;65859;43.020;25.096;2023-02-28T03:31:03;100017.69;;;7.92
76901;BMP280;65859;43.020;25.096;2023-02-28T03:33:47;100019.03;;;7.90
76901;BMP280;65859;43.020;25.096;2023-02-28T03:36:23;100034.16;;;7.84
76901;BMP280;65859;43.020;25.096;2023-02-28T03:41:21;100030.38;;;7.90
76901;BMP280;65859;43.020;25.096;2023-02-28T03:44:12;100024.03;;;8.34
76901;BMP280;65859;43.020;25.096;2023-02-28T03:47:07;100024.41;;;8.84
76901;BMP280;65859;43.020;25.096;2023-02-28T03:49:49;100044.69;;;8.88
76901;BMP280;65859;43.020;25.096;2023-02-28T03:52:18;100029.25;;;8.96
76901;BMP280;65859;43.020;25.096;2023-02-28T03:54:50;100041.53;;;8.68
76901;BMP280;65859;43.020;25.096;2023-02-28T03:57:21;100038.63;;;8.50
76901;BMP280;65859;43.020;25.096;2023-02-28T03:59:55;100040.13;;;8.56
76901;BMP280;65859;43.020;25.096;2023-02-28T04:02:24;100051.06;;;8.69
76901;BMP280;65859;43.020;25.096;2023-02-28T04:04:50;100054.25;;;8.28
76901;BMP280;65859;43.020;25.096;2023-02-28T04:07:17;100054.19;;;8.33
76901;BMP280;65859;43.020;25.096;2023-02-28T04:09:44;100058.72;;;8.51
76901;BMP280;65859;43.020;25.096;2023-02-28T04:12:10;100058.94;;;8.55
76901;BMP280;65859;43.020;25.096;2023-02-28T04:14:37;100058.28;;;8.44
76901;BMP280;65859;43.020;25.096;2023-02-28T04:17:03;100055.66;;;8.44
76901;BMP280;65859;43.020;25.096;2023-02-28T04:19:30;100049.22;;;8.31
76901;BMP280;65859;43.020;25.096;2023-02-28T04:21:56;100048.38;;;8.31
76901;BMP280;65859;43.020;25.096;2023-02-28T04:24:27;100047.91;;;8.48
76901;BMP280;65859;43.020;25.096;2023-02-28T04:26:55;100055.72;;;8.58
76901;BMP280;65859;43.020;25.096;2023-02-28T04:29:27;100061.59;;;8.55
76901;BMP280;65859;43.020;25.096;2023-02-28T04:31:54;100058.00;;;8.46
76901;BMP280;65859;43.020;25.096;2023-02-28T04:34:23;100064.09;;;8.46
76901;BMP280;65859;43.020;25.096;2023-02-28T04:36:50;100060.06;;;8.49
76901;BMP280;65859;43.020;25.096;2023-02-28T04:39:23;100063.16;;;8.56
76901;BMP280;65859;43.020;25.096;2023-02-28T04:41:50;100065.03;;;8.55
76901;BMP280;65859;43.020;25.096;2023-02-28T04:44:16;100053.78;;;8.82
76901;BMP280;65859;43.020;25.096;2023-02-28T04:46:43;100060.91;;;9.01
76901;BMP280;65859;43.020;25.096;2023-02-28T04:49:13;100064.00;;;8.70
76901;BMP280;65859;43.020;25.096;2023-02-28T04:51:40;100058.94;;;9.25
76901;BMP280;65859;43.020;25.096;2023-02-28T04:54:06;100057.25;;;9.15
76901;BMP280;65859;43.020;25.096;2023-02-28T04:56:33;100066.88;;;8.93
76901;BMP280;65859;43.020;25.096;2023-02-28T04:58:59;100067.59;;;9.44
76901;BMP280;65859;43.020;25.096;2023-02-28T05:01:28;100063.25;;;9.21
76901;BMP280;65859;43.020;25.096;2023-02-28T05:03:57;100063.34;;;8.59
76901;BMP280;65859;43.020;25.096;2023-02-28T05:06:26;100074.28;;;8.53
76901;BMP280;65859;43.020;25.096;2023-02-28T05:08:53;100076.59;;;8.59
76901;BMP280;65859;43.020;25.096;2023-02-28T05:11:31;100073.50;;;8.52
76901;BMP280;65859;43.020;25.096;2023-02-28T05:14:06;100077.38;;;8.60
76901;BMP280;65859;43.020;25.096;2023-02-28T05:16:33;100079.34;;;8.49
76901;BMP280;65859;43.020;25.096;2023-02-28T05:18:59;100081.63;;;8.37
76901;BMP280;65859;43.020;25.096;2023-02-28T05:23:58;100094.38;;;8.35
76901;BMP280;65859;43.020;25.096;2023-02-28T05:26:26;100087.38;;;8.44
76901;BMP280;65859;43.020;25.096;2023-02-28T05:28:53;100094.72;;;8.28
76901;BMP280;65859;43.020;25.096;2023-02-28T05:31:20;100092.28;;;8.32
76901;BMP280;65859;43.020;25.096;2023-02-28T05:33:47;100097.03;;;8.35
76901;BMP280;65859;43.020;25.096;2023-02-28T05:36:14;100091.66;;;8.16
76901;BMP280;65859;43.020;25.096;2023-02-28T05:38:41;100105.25;;;8.52
76901;BMP280;65859;43.020;25.096;2023-02-28T05:41:09;100108.31;;;8.59
76901;BMP280;65859;43.020;25.096;2023-02-28T05:43:36;100115.84;;;8.04
76901;BMP280;65859;43.020;25.096;2023-02-28T05:46:07;100107.16;;;8.28
76901;BMP280;65859;43.020;25.096;2023-02-28T05:48:35;100118.09;;;7.63
76901;BMP280;65859;43.020;25.096;2023-02-28T05:51:02;100122.38;;;8.12
76901;BMP280;65859;43.020;25.096;2023-02-28T05:53:29;100132.69;;;8.14
76901;BMP280;65859;43.020;25.096;2023-02-28T05:55:55;100125.03;;;7.83
76901;BMP280;65859;43.020;25.096;2023-02-28T05:58:22;100130.16;;;8.03
76901;BMP280;65859;43.020;25.096;2023-02-28T06:00:48;100136.25;;;7.99
76901;BMP280;65859;43.020;25.096;2023-02-28T06:03:15;100135.22;;;7.71
76901;BMP280;65859;43.020;25.096;2023-02-28T06:05:41;100129.84;;;7.47
76901;BMP280;65859;43.020;25.096;2023-02-28T06:08:07;100133.06;;;7.73
76901;BMP280;65859;43.020;25.096;2023-02-28T06:10:35;100132.03;;;7.69
76901;BMP280;65859;43.020;25.096;2023-02-28T06:13:03;100135.22;;;7.71
76901;BMP280;65859;43.020;25.096;2023-02-28T06:15:30;100132.00;;;7.74
76901;BMP280;65859;43.020;25.096;2023-02-28T06:17:56;100129.22;;;7.89
76901;BMP280;65859;43.020;25.096;2023-02-28T06:20:24;100130.53;;;7.57
76901;BMP280;65859;43.020;25.096;2023-02-28T06:22:52;100135.63;;;7.49
76901;BMP280;65859;43.020;25.096;2023-02-28T06:25:20;100135.56;;;7.54
76901;BMP280;65859;43.020;25.096;2023-02-28T06:27:47;100136.97;;;7.80
76901;BMP280;65859;43.020;25.096;2023-02-28T06:30:14;100137.91;;;7.61
76901;BMP280;65859;43.020;25.096;2023-02-28T06:32:40;100144.75;;;7.67
76901;BMP280;65859;43.020;25.096;2023-02-28T06:35:07;100141.25;;;7.71
76901;BMP280;65859;43.020;25.096;2023-02-28T06:37:34;100138.66;;;7.95
76901;BMP280;65859;43.020;25.096;2023-02-28T06:40:00;100133.38;;;7.95
76901;BMP280;65859;43.020;25.096;2023-02-28T06:42:28;100135.09;;;8.34
76901;BMP280;65859;43.020;25.096;2023-02-28T06:44:57;100130.88;;;8.33
76901;BMP280;65859;43.020;25.096;2023-02-28T06:47:24;100124.84;;;8.51
76901;BMP280;65859;43.020;25.096;2023-02-28T06:49:50;100131.59;;;8.62
76901;BMP280;65859;43.020;25.096;2023-02-28T06:52:17;100131.59;;;8.62
76901;BMP280;65859;43.020;25.096;2023-02-28T06:54:43;100137.28;;;8.51
76901;BMP280;65859;43.020;25.096;2023-02-28T06:57:10;100135.38;;;8.56
76901;BMP280;65859;43.020;25.096;2023-02-28T06:59:36;100139.53;;;8.38
76901;BMP280;65859;43.020;25.096;2023-02-28T07:02:03;100142.06;;;8.49
76901;BMP280;65859;43.020;25.096;2023-02-28T07:04:29;100146.78;;;8.52
76901;BMP280;65859;43.020;25.096;2023-02-28T07:06:56;100146.81;;;8.71
76901;BMP280;65859;43.020;25.096;2023-02-28T07:09:23;100153.44;;;8.92
76901;BMP280;65859;43.020;25.096;2023-02-28T07:11:49;100159.91;;;8.62
76901;BMP280;65859;43.020;25.096;2023-02-28T07:14:17;100164.66;;;8.84
76901;BMP280;65859;43.020;25.096;2023-02-28T07:16:43;100157.84;;;8.97
76901;BMP280;65859;43.020;25.096;2023-02-28T07:19:11;100159.66;;;9.01
76901;BMP280;65859;43.020;25.096;2023-02-28T07:21:37;100166.75;;;9.06
76901;BMP280;65859;43.020;25.096;2023-02-28T07:24:04;100172.75;;;8.50
76901;BMP280;65859;43.020;25.096;2023-02-28T07:26:30;100169.06;;;8.70
76901;BMP280;65859;43.020;25.096;2023-02-28T07:29:00;100173.28;;;8.89
76901;BMP280;65859;43.020;25.096;2023-02-28T07:31:26;100172.78;;;8.69
76901;BMP280;65859;43.020;25.096;2023-02-28T07:33:52;100174.63;;;8.68
76901;BMP280;65859;43.020;25.096;2023-02-28T07:36:20;100171.16;;;8.73
76901;BMP280;65859;43.020;25.096;2023-02-28T07:38:47;100183.94;;;8.66
76901;BMP280;65859;43.020;25.096;2023-02-28T07:41:20;100181.81;;;8.38
76901;BMP280;65859;43.020;25.096;2023-02-28T07:43:47;100173.63;;;8.64
76901;BMP280;65859;43.020;25.096;2023-02-28T07:46:16;100177.19;;;8.01
76901;BMP280;65859;43.020;25.096;2023-02-28T07:48:43;100185.38;;;8.53
76901;BMP280;65859;43.020;25.096;2023-02-28T07:51:10;100183.72;;;9.05
76901;BMP280;65859;43.020;25.096;2023-02-28T07:53:36;100180.13;;;8.96
76901;BMP280;65859;43.020;25.096;2023-02-28T07:56:03;100186.06;;;9.06
76901;BMP280;65859;43.020;25.096;2023-02-28T07:58:33;100185.31;;;9.01
76901;BMP280;65859;43.020;25.096;2023-02-28T08:01:10;100176.69;;;8.95
76901;BMP280;65859;43.020;25.096;2023-02-28T08:03:38;100177.38;;;9.01
76901;BMP280;65859;43.020;25.096;2023-02-28T08:06:05;100183.31;;;8.93
76901;BMP280;65859;43.020;25.096;2023-02-28T08:08:32;100188.59;;;8.74
